sensor_id;sensor_type;location;lat;lon;timestamp;temperature;humidity
51801;DHT22;37855;53.204;6.568;2023-03-11T00:00:21;1.20;70.30
51801;DHT22;37855;53.204;6.568;2023-03-11T00:02:49;1.20;70.70
51801;DHT22;37855;53.204;6.568;2023-03-11T00:05:17;1.30;70.30
51801;DHT22;37855;53.204;6.568;2023-03-11T00:07:43;1.30;69.10
51801;DHT22;37855;53.204;6.568;2023-03-11T00:10:14;1.30;68.70
51801;DHT22;37855;53.204;6.568;2023-03-11T00:12:40;1.30;67.80
51801;DHT22;37855;53.204;6.568;2023-03-11T00:15:06;1.30;67.30
51801;DHT22;37855;53.204;6.568;2023-03-11T00:17:32;1.40;67.80
51801;DHT22;37855;53.204;6.568;2023-03-11T00:19:58;1.30;68.20
51801;DHT22;37855;53.204;6.568;2023-03-11T00:22:23;1.40;67.80
51801;DHT22;37855;53.204;6.568;2023-03-11T00:24:49;1.30;68.00
51801;DHT22;37855;53.204;6.568;2023-03-11T00:27:15;1.30;67.40
51801;DHT22;37855;53.204;6.568;2023-03-11T00:29:40;1.30;67.60
51801;DHT22;37855;53.204;6.568;2023-03-11T00:32:06;1.30;67.00
51801;DHT22;37855;53.204;6.568;2023-03-11T00:34:33;1.30;67.30
51801;DHT22;37855;53.204;6.568;2023-03-11T00:36:59;1.30;67.00
51801;DHT22;37855;53.204;6.568;2023-03-11T00:39:25;1.30;67.00
51801;DHT22;37855;53.204;6.568;2023-03-11T00:41:53;1.30;66.40
51801;DHT22;37855;53.204;6.568;2023-03-11T00:44:21;1.30;66.80
51801;DHT22;37855;53.204;6.568;2023-03-11T00:46:50;1.30;66.40
51801;DHT22;37855;53.204;6.568;2023-03-11T00:49:15;1.30;65.90
51801;DHT22;37855;53.204;6.568;2023-03-11T00:51:41;1.30;66.10
51801;DHT22;37855;53.204;6.568;2023-03-11T00:54:07;1.30;65.70
51801;DHT22;37855;53.204;6.568;2023-03-11T00:56:33;1.30;66.20
51801;DHT22;37855;53.204;6.568;2023-03-11T00:58:59;1.30;66.00
51801;DHT22;37855;53.204;6.568;2023-03-11T01:01:24;1.30;66.10
51801;DHT22;37855;53.204;6.568;2023-03-11T01:03:50;1.30;65.50
51801;DHT22;37855;53.204;6.568;2023-03-11T01:06:16;1.30;65.70
51801;DHT22;37855;53.204;6.568;2023-03-11T01:08:41;1.30;64.90
51801;DHT22;37855;53.204;6.568;2023-03-11T01:11:08;1.30;65.60
51801;DHT22;37855;53.204;6.568;2023-03-11T01:13:34;1.30;65.80
51801;DHT22;37855;53.204;6.568;2023-03-11T01:16:03;1.30;66.00
51801;DHT22;37855;53.204;6.568;2023-03-11T01:18:29;1.20;66.30
51801;DHT22;37855;53.204;6.568;2023-03-11T01:20:55;1.30;65.70
51801;DHT22;37855;53.204;6.568;2023-03-11T01:23:21;1.30;65.40
51801;DHT22;37855;53.204;6.568;2023-03-11T01:25:47;1.30;65.50
51801;DHT22;37855;53.204;6.568;2023-03-11T01:28:12;1.30;65.30
51801;DHT22;37855;53.204;6.568;2023-03-11T01:30:40;1.40;65.10
51801;DHT22;37855;53.204;6.568;2023-03-11T01:33:08;1.40;65.50
51801;DHT22;37855;53.204;6.568;2023-03-11T01:35:37;1.30;66.10
51801;DHT22;37855;53.204;6.568;2023-03-11T01:38:04;1.30;66.60
51801;DHT22;37855;53.204;6.568;2023-03-11T01:40:47;1.30;66.90
51801;DHT22;37855;53.204;6.568;2023-03-11T01:46:20;1.20;66.40
51801;DHT22;37855;53.204;6.568;2023-03-11T01:48:57;1.20;66.60
51801;DHT22;37855;53.204;6.568;2023-03-11T01:52:01;1.20;66.60
51801;DHT22;37855;53.204;6.568;2023-03-11T01:54:26;1.20;66.00
51801;DHT22;37855;53.204;6.568;2023-03-11T01:56:54;1.20;65.30
51801;DHT22;37855;53.204;6.568;2023-03-11T01:59:22;1.20;64.80
51801;DHT22;37855;53.204;6.568;2023-03-11T02:02:07;1.20;65.00
51801;DHT22;37855;53.204;6.568;2023-03-11T02:04:35;1.20;64.40
51801;DHT22;37855;53.204;6.568;2023-03-11T02:07:02;1.20;63.80
51801;DHT22;37855;53.204;6.568;2023-03-11T02:09:29;1.20;63.50
51801;DHT22;37855;53.204;6.568;2023-03-11T02:11:55;1.20;62.50
51801;DHT22;37855;53.204;6.568;2023-03-11T02:14:23;1.20;62.30
51801;DHT22;37855;53.204;6.568;2023-03-11T02:16:50;1.20;62.70
51801;DHT22;37855;53.204;6.568;2023-03-11T02:22:15;1.10;62.70
51801;DHT22;37855;53.204;6.568;2023-03-11T02:27:17;1.10;62.50
51801;DHT22;37855;53.204;6.568;2023-03-11T02:29:45;1.10;62.60
51801;DHT22;37855;53.204;6.568;2023-03-11T02:32:14;1.10;62.00
51801;DHT22;37855;53.204;6.568;2023-03-11T02:34:40;1.10;62.20
51801;DHT22;37855;53.204;6.568;2023-03-11T02:37:11;1.10;62.20
51801;DHT22;37855;53.204;6.568;2023-03-11T02:39:39;1.00;62.40
51801;DHT22;37855;53.204;6.568;2023-03-11T02:42:14;1.00;62.80
51801;DHT22;37855;53.204;6.568;2023-03-11T02:44:44;1.00;62.60
51801;DHT22;37855;53.204;6.568;2023-03-11T02:47:11;1.00;62.30
51801;DHT22;37855;53.204;6.568;2023-03-11T02:49:37;1.00;61.90
51801;DHT22;37855;53.204;6.568;2023-03-11T02:52:04;0.90;62.20
51801;DHT22;37855;53.204;6.568;2023-03-11T02:54:30;0.90;62.40
51801;DHT22;37855;53.204;6.568;2023-03-11T02:57:03;1.00;62.40
51801;DHT22;37855;53.204;6.568;2023-03-11T02:59:32;1.00;62.20
51801;DHT22;37855;53.204;6.568;2023-03-11T03:01:57;1.00;62.70
51801;DHT22;37855;53.204;6.568;2023-03-11T03:04:23;0.90;63.30
51801;DHT22;37855;53.204;6.568;2023-03-11T03:06:49;0.90;63.70
51801;DHT22;37855;53.204;6.568;2023-03-11T03:09:14;0.90;63.70
51801;DHT22;37855;53.204;6.568;2023-03-11T03:11:40;0.80;64.20
51801;DHT22;37855;53.204;6.568;2023-03-11T03:14:06;0.80;64.50
51801;DHT22;37855;53.204;6.568;2023-03-11T03:16:31;0.80;64.60
51801;DHT22;37855;53.204;6.568;2023-03-11T03:18:57;0.80;64.90
51801;DHT22;37855;53.204;6.568;2023-03-11T03:21:22;0.70;65.20
51801;DHT22;37855;53.204;6.568;2023-03-11T03:23:49;0.70;65.50
51801;DHT22;37855;53.204;6.568;2023-03-11T03:26:19;0.60;65.80
51801;DHT22;37855;53.204;6.568;2023-03-11T03:28:45;0.60;66.10
51801;DHT22;37855;53.204;6.568;2023-03-11T03:31:11;0.60;66.40
51801;DHT22;37855;53.204;6.568;2023-03-11T03:33:37;0.60;66.70
51801;DHT22;37855;53.204;6.568;2023-03-11T03:36:11;0.60;67.00
51801;DHT22;37855;53.204;6.568;2023-03-11T03:38:37;0.60;67.20
51801;DHT22;37855;53.204;6.568;2023-03-11T03:41:03;0.50;67.30
51801;DHT22;37855;53.204;6.568;2023-03-11T03:43:29;0.50;67.50
51801;DHT22;37855;53.204;6.568;2023-03-11T03:46:02;0.50;67.70
51801;DHT22;37855;53.204;6.568;2023-03-11T03:48:29;0.50;67.90
51801;DHT22;37855;53.204;6.568;2023-03-11T03:51:06;0.50;67.90
51801;DHT22;37855;53.204;6.568;2023-03-11T03:53:34;0.50;68.00
51801;DHT22;37855;53.204;6.568;2023-03-11T03:56:09;0.50;68.00
51801;DHT22;37855;53.204;6.568;2023-03-11T03:58:36;0.50;68.00
51801;DHT22;37855;53.204;6.568;2023-03-11T04:01:06;0.50;68.00
51801;DHT22;37855;53.204;6.568;2023-03-11T04:03:32;0.40;68.00
51801;DHT22;37855;53.204;6.568;2023-03-11T04:06:14;0.40;68.00
51801;DHT22;37855;53.204;6.568;2023-03-11T04:08:40;0.50;67.90
51801;DHT22;37855;53.204;6.568;2023-03-11T04:11:07;0.40;68.10
51801;DHT22;37855;53.204;6.568;2023-03-11T04:13:33;0.40;68.20
51801;DHT22;37855;53.204;6.568;2023-03-11T04:16:04;0.40;68.30
51801;DHT22;37855;53.204;6.568;2023-03-11T04:18:31;0.40;68.40
51801;DHT22;37855;53.204;6.568;2023-03-11T04:20:57;0.30;68.50
51801;DHT22;37855;53.204;6.568;2023-03-11T04:23:24;0.30;68.70
51801;DHT22;37855;53.204;6.568;2023-03-11T04:25:49;0.30;68.80
51801;DHT22;37855;53.204;6.568;2023-03-11T04:28:18;0.30;68.80
51801;DHT22;37855;53.204;6.568;2023-03-11T04:30:44;0.20;68.90
51801;DHT22;37855;53.204;6.568;2023-03-11T04:33:10;0.20;69.00
51801;DHT22;37855;53.204;6.568;2023-03-11T04:35:37;0.20;69.10
51801;DHT22;37855;53.204;6.568;2023-03-11T04:38:03;0.10;69.30
51801;DHT22;37855;53.204;6.568;2023-03-11T04:40:29;0.10;69.30
51801;DHT22;37855;53.204;6.568;2023-03-11T04:42:55;0.10;69.50
51801;DHT22;37855;53.204;6.568;2023-03-11T04:45:20;0.10;69.60
51801;DHT22;37855;53.204;6.568;2023-03-11T04:47:51;0.10;69.50
51801;DHT22;37855;53.204;6.568;2023-03-11T04:50:19;0.10;69.40
51801;DHT22;37855;53.204;6.568;2023-03-11T04:52:45;0.10;69.50
51801;DHT22;37855;53.204;6.568;2023-03-11T04:55:11;0.10;69.50
51801;DHT22;37855;53.204;6.568;2023-03-11T04:57:39;0.10;69.50
51801;DHT22;37855;53.204;6.568;2023-03-11T05:00:05;0.00;69.60
51801;DHT22;37855;53.204;6.568;2023-03-11T05:02:36;0.00;69.50
51801;DHT22;37855;53.204;6.568;2023-03-11T05:05:03;0.10;69.50
51801;DHT22;37855;53.204;6.568;2023-03-11T05:07:29;0.00;69.60
51801;DHT22;37855;53.204;6.568;2023-03-11T05:10:03;0.00;69.60
51801;DHT22;37855;53.204;6.568;2023-03-11T05:12:31;0.00;69.70
51801;DHT22;37855;53.204;6.568;2023-03-11T05:14:59;-0.10;70.00
51801;DHT22;37855;53.204;6.568;2023-03-11T05:17:25;-0.20;70.20
51801;DHT22;37855;53.204;6.568;2023-03-11T05:19:51;-0.20;70.50
51801;DHT22;37855;53.204;6.568;2023-03-11T05:22:19;-0.30;70.60
51801;DHT22;37855;53.204;6.568;2023-03-11T05:24:45;-0.30;70.80
51801;DHT22;37855;53.204;6.568;2023-03-11T05:27:12;-0.30;70.90
51801;DHT22;37855;53.204;6.568;2023-03-11T05:29:38;-0.20;70.60
51801;DHT22;37855;53.204;6.568;2023-03-11T05:32:03;-0.30;70.60
51801;DHT22;37855;53.204;6.568;2023-03-11T05:34:30;-0.30;70.70
51801;DHT22;37855;53.204;6.568;2023-03-11T05:36:56;-0.40;70.90
51801;DHT22;37855;53.204;6.568;2023-03-11T05:39:22;-0.50;71.10
51801;DHT22;37855;53.204;6.568;2023-03-11T05:41:51;-0.50;71.30
51801;DHT22;37855;53.204;6.568;2023-03-11T05:44:16;-0.50;71.20
51801;DHT22;37855;53.204;6.568;2023-03-11T05:46:45;-0.50;71.40
51801;DHT22;37855;53.204;6.568;2023-03-11T05:49:11;-0.50;71.50
51801;DHT22;37855;53.204;6.568;2023-03-11T05:51:36;-0.60;71.50
51801;DHT22;37855;53.204;6.568;2023-03-11T05:54:02;-0.60;71.70
51801;DHT22;37855;53.204;6.568;2023-03-11T05:56:28;-0.60;71.80
51801;DHT22;37855;53.204;6.568;2023-03-11T05:58:56;-0.60;71.90
51801;DHT22;37855;53.204;6.568;2023-03-11T06:01:22;-0.60;72.00
51801;DHT22;37855;53.204;6.568;2023-03-11T06:03:48;-0.60;72.10
51801;DHT22;37855;53.204;6.568;2023-03-11T06:06:16;-0.60;72.20
51801;DHT22;37855;53.204;6.568;2023-03-11T06:08:42;-0.60;72.30
51801;DHT22;37855;53.204;6.568;2023-03-11T06:11:14;-0.60;72.20
51801;DHT22;37855;53.204;6.568;2023-03-11T06:13:40;-0.70;72.40
51801;DHT22;37855;53.204;6.568;2023-03-11T06:16:08;-0.60;72.50
51801;DHT22;37855;53.204;6.568;2023-03-11T06:18:33;-0.60;72.50
51801;DHT22;37855;53.204;6.568;2023-03-11T06:21:00;-0.60;72.60
51801;DHT22;37855;53.204;6.568;2023-03-11T06:23:27;-0.60;72.60
51801;DHT22;37855;53.204;6.568;2023-03-11T06:26:01;-0.60;72.60
51801;DHT22;37855;53.204;6.568;2023-03-11T06:28:31;-0.60;72.70
51801;DHT22;37855;53.204;6.568;2023-03-11T06:31:06;-0.50;72.70
51801;DHT22;37855;53.204;6.568;2023-03-11T06:33:32;-0.60;72.80
51801;DHT22;37855;53.204;6.568;2023-03-11T06:36:01;-0.60;72.80
51801;DHT22;37855;53.204;6.568;2023-03-11T06:38:30;-0.50;72.80
51801;DHT22;37855;53.204;6.568;2023-03-11T06:41:02;-0.60;72.80
51801;DHT22;37855;53.204;6.568;2023-03-11T06:43:29;-0.50;72.80
51801;DHT22;37855;53.204;6.568;2023-03-11T06:45:56;-0.50;72.90
51801;DHT22;37855;53.204;6.568;2023-03-11T06:48:25;-0.50;72.90
51801;DHT22;37855;53.204;6.568;2023-03-11T06:50:56;-0.50;72.90
51801;DHT22;37855;53.204;6.568;2023-03-11T06:53:22;-0.40;72.90
51801;DHT22;37855;53.204;6.568;2023-03-11T06:56:06;-0.40;73.00
51801;DHT22;37855;53.204;6.568;2023-03-11T06:58:33;-0.30;72.90
51801;DHT22;37855;53.204;6.568;2023-03-11T07:01:22;-0.30;72.80
51801;DHT22;37855;53.204;6.568;2023-03-11T07:03:51;-0.20;72.60
51801;DHT22;37855;53.204;6.568;2023-03-11T07:06:22;-0.20;72.40
51801;DHT22;37855;53.204;6.568;2023-03-11T07:08:49;-0.10;72.30
51801;DHT22;37855;53.204;6.568;2023-03-11T07:11:24;-0.10;72.30
51801;DHT22;37855;53.204;6.568;2023-03-11T07:13:51;-0.10;72.30
51801;DHT22;37855;53.204;6.568;2023-03-11T07:16:20;0.00;72.20
51801;DHT22;37855;53.204;6.568;2023-03-11T07:18:47;0.00;72.20
51801;DHT22;37855;53.204;6.568;2023-03-11T07:21:15;0.00;72.20
51801;DHT22;37855;53.204;6.568;2023-03-11T07:23:55;0.10;72.20
51801;DHT22;37855;53.204;6.568;2023-03-11T07:26:40;0.10;72.00
51801;DHT22;37855;53.204;6.568;2023-03-11T07:29:08;0.20;72.00
51801;DHT22;37855;53.204;6.568;2023-03-11T07:31:35;0.20;71.90
51801;DHT22;37855;53.204;6.568;2023-03-11T07:34:07;0.20;71.80
51801;DHT22;37855;53.204;6.568;2023-03-11T07:36:37;0.30;71.80
51801;DHT22;37855;53.204;6.568;2023-03-11T07:39:04;0.30;71.70
51801;DHT22;37855;53.204;6.568;2023-03-11T07:41:32;0.40;71.70
51801;DHT22;37855;53.204;6.568;2023-03-11T07:43:59;0.40;71.70
51801;DHT22;37855;53.204;6.568;2023-03-11T07:46:27;0.50;71.70
51801;DHT22;37855;53.204;6.568;2023-03-11T07:48:52;0.50;71.70
51801;DHT22;37855;53.204;6.568;2023-03-11T07:51:26;0.60;71.70
51801;DHT22;37855;53.204;6.568;2023-03-11T07:53:54;0.60;71.60
51801;DHT22;37855;53.204;6.568;2023-03-11T07:56:24;0.60;71.70
51801;DHT22;37855;53.204;6.568;2023-03-11T07:58:50;0.70;71.70
51801;DHT22;37855;53.204;6.568;2023-03-11T08:01:20;0.80;71.70
51801;DHT22;37855;53.204;6.568;2023-03-11T08:03:48;0.80;71.50
51801;DHT22;37855;53.204;6.568;2023-03-11T08:06:26;0.90;71.50
51801;DHT22;37855;53.204;6.568;2023-03-11T08:08:52;1.00;71.50
51801;DHT22;37855;53.204;6.568;2023-03-11T08:11:18;1.10;71.50
51801;DHT22;37855;53.204;6.568;2023-03-11T08:13:47;1.10;71.50
51801;DHT22;37855;53.204;6.568;2023-03-11T08:16:15;1.20;71.30
51801;DHT22;37855;53.204;6.568;2023-03-11T08:21:12;1.30;71.10
51801;DHT22;37855;53.204;6.568;2023-03-11T08:23:38;1.40;71.10
51801;DHT22;37855;53.204;6.568;2023-03-11T08:26:06;1.50;70.80
51801;DHT22;37855;53.204;6.568;2023-03-11T08:28:32;1.50;71.00
51801;DHT22;37855;53.204;6.568;2023-03-11T08:31:01;1.50;70.90
51801;DHT22;37855;53.204;6.568;2023-03-11T08:33:27;1.60;70.70
51801;DHT22;37855;53.204;6.568;2023-03-11T08:35:53;1.70;70.60
51801;DHT22;37855;53.204;6.568;2023-03-11T08:38:22;1.80;70.50
51801;DHT22;37855;53.204;6.568;2023-03-11T08:40:48;1.80;70.30
51801;DHT22;37855;53.204;6.568;2023-03-11T08:43:16;1.90;70.30
51801;DHT22;37855;53.204;6.568;2023-03-11T08:45:42;2.00;70.10
51801;DHT22;37855;53.204;6.568;2023-03-11T08:48:10;2.00;69.90
51801;DHT22;37855;53.204;6.568;2023-03-11T08:50:36;2.10;69.80
51801;DHT22;37855;53.204;6.568;2023-03-11T08:53:01;2.10;69.80
51801;DHT22;37855;53.204;6.568;2023-03-11T08:55:45;2.20;69.90
51801;DHT22;37855;53.204;6.568;2023-03-11T08:58:20;2.30;69.90
51801;DHT22;37855;53.204;6.568;2023-03-11T09:00:46;2.30;69.70
51801;DHT22;37855;53.204;6.568;2023-03-11T09:03:44;2.40;69.50
51801;DHT22;37855;53.204;6.568;2023-03-11T09:06:19;2.50;69.40
51801;DHT22;37855;53.204;6.568;2023-03-11T09:08:46;2.60;69.40
51801;DHT22;37855;53.204;6.568;2023-03-11T09:11:36;2.70;69.40
51801;DHT22;37855;53.204;6.568;2023-03-11T09:14:03;2.70;69.30
51801;DHT22;37855;53.204;6.568;2023-03-11T09:16:29;2.80;69.00
51801;DHT22;37855;53.204;6.568;2023-03-11T09:19:36;2.80;69.20
51801;DHT22;37855;53.204;6.568;2023-03-11T09:25:33;3.00;68.80
51801;DHT22;37855;53.204;6.568;2023-03-11T09:27:58;3.10;68.60
51801;DHT22;37855;53.204;6.568;2023-03-11T09:30:24;3.20;68.70
51801;DHT22;37855;53.204;6.568;2023-03-11T09:32:50;3.20;68.50
51801;DHT22;37855;53.204;6.568;2023-03-11T09:35:34;3.30;68.40
51801;DHT22;37855;53.204;6.568;2023-03-11T09:38:15;3.30;68.50
51801;DHT22;37855;53.204;6.568;2023-03-11T09:44:19;3.40;68.60
51801;DHT22;37855;53.204;6.568;2023-03-11T09:52:27;3.60;67.90
51801;DHT22;37855;53.204;6.568;2023-03-11T09:54:54;3.70;67.60
51801;DHT22;37855;53.204;6.568;2023-03-11T09:57:23;3.70;68.00
51801;DHT22;37855;53.204;6.568;2023-03-11T09:59:49;3.70;67.60
51801;DHT22;37855;53.204;6.568;2023-03-11T10:02:21;3.70;67.70
51801;DHT22;37855;53.204;6.568;2023-03-11T10:04:57;3.80;67.90
51801;DHT22;37855;53.204;6.568;2023-03-11T10:07:27;3.80;68.00
51801;DHT22;37855;53.204;6.568;2023-03-11T10:09:57;3.80;68.20
51801;DHT22;37855;53.204;6.568;2023-03-11T10:15:06;4.00;68.00
51801;DHT22;37855;53.204;6.568;2023-03-11T10:20:16;4.00;67.30
51801;DHT22;37855;53.204;6.568;2023-03-11T10:28:21;4.00;66.80
51801;DHT22;37855;53.204;6.568;2023-03-11T10:30:57;4.00;66.40
51801;DHT22;37855;53.204;6.568;2023-03-11T10:33:40;4.00;66.30
51801;DHT22;37855;53.204;6.568;2023-03-11T10:36:21;4.00;66.40
51801;DHT22;37855;53.204;6.568;2023-03-11T10:38:50;4.00;65.90
51801;DHT22;37855;53.204;6.568;2023-03-11T10:41:26;4.00;66.40
51801;DHT22;37855;53.204;6.568;2023-03-11T10:44:37;4.00;66.50
51801;DHT22;37855;53.204;6.568;2023-03-11T10:47:03;4.10;66.20
51801;DHT22;37855;53.204;6.568;2023-03-11T10:49:51;4.20;66.00
51801;DHT22;37855;53.204;6.568;2023-03-11T10:52:19;4.20;65.60
51801;DHT22;37855;53.204;6.568;2023-03-11T10:54:47;4.20;65.60
51801;DHT22;37855;53.204;6.568;2023-03-11T11:02:50;4.30;65.60
51801;DHT22;37855;53.204;6.568;2023-03-11T11:05:43;4.30;65.60
51801;DHT22;37855;53.204;6.568;2023-03-11T11:08:26;4.30;65.60
51801;DHT22;37855;53.204;6.568;2023-03-11T11:11:01;4.40;65.00
51801;DHT22;37855;53.204;6.568;2023-03-11T11:13:32;4.30;65.30
51801;DHT22;37855;53.204;6.568;2023-03-11T11:16:00;4.30;65.40
51801;DHT22;37855;53.204;6.568;2023-03-11T11:18:33;4.30;65.20
51801;DHT22;37855;53.204;6.568;2023-03-11T11:21:01;4.40;65.40
51801;DHT22;37855;53.204;6.568;2023-03-11T11:23:43;4.40;65.60
51801;DHT22;37855;53.204;6.568;2023-03-11T11:28:43;4.50;65.50
51801;DHT22;37855;53.204;6.568;2023-03-11T11:31:25;4.50;65.20
51801;DHT22;37855;53.204;6.568;2023-03-11T11:33:52;4.50;65.20
51801;DHT22;37855;53.204;6.568;2023-03-11T11:36:26;4.60;65.10
51801;DHT22;37855;53.204;6.568;2023-03-11T11:38:58;4.60;65.10
51801;DHT22;37855;53.204;6.568;2023-03-11T11:41:26;4.60;65.30
51801;DHT22;37855;53.204;6.568;2023-03-11T11:44:06;4.70;64.50
51801;DHT22;37855;53.204;6.568;2023-03-11T11:47:35;4.70;64.30
51801;DHT22;37855;53.204;6.568;2023-03-11T11:49:34;4.70;64.90
51801;DHT22;37855;53.204;6.568;2023-03-11T11:54:32;4.70;64.30
51801;DHT22;37855;53.204;6.568;2023-03-11T11:57:01;4.70;64.50
51801;DHT22;37855;53.204;6.568;2023-03-11T11:59:34;4.80;64.40
51801;DHT22;37855;53.204;6.568;2023-03-11T12:07:59;4.90;64.50
51801;DHT22;37855;53.204;6.568;2023-03-11T12:10:40;5.00;64.70
51801;DHT22;37855;53.204;6.568;2023-03-11T12:15:53;5.10;64.50
51801;DHT22;37855;53.204;6.568;2023-03-11T12:18:25;5.10;64.50
51801;DHT22;37855;53.204;6.568;2023-03-11T12:20:55;5.20;64.20
51801;DHT22;37855;53.204;6.568;2023-03-11T12:23:40;5.10;63.50
51801;DHT22;37855;53.204;6.568;2023-03-11T12:26:24;5.10;63.70
51801;DHT22;37855;53.204;6.568;2023-03-11T12:28:59;5.20;63.50
51801;DHT22;37855;53.204;6.568;2023-03-11T12:31:28;5.20;63.70
51801;DHT22;37855;53.204;6.568;2023-03-11T12:34:01;5.20;63.80
51801;DHT22;37855;53.204;6.568;2023-03-11T12:36:42;5.30;63.80
51801;DHT22;37855;53.204;6.568;2023-03-11T12:39:29;5.30;63.30
51801;DHT22;37855;53.204;6.568;2023-03-11T12:42:22;5.30;62.30
51801;DHT22;37855;53.204;6.568;2023-03-11T12:44:50;5.20;62.20
51801;DHT22;37855;53.204;6.568;2023-03-11T12:47:33;5.30;61.80
51801;DHT22;37855;53.204;6.568;2023-03-11T12:50:37;5.20;60.90
51801;DHT22;37855;53.204;6.568;2023-03-11T12:53:04;5.30;60.60
51801;DHT22;37855;53.204;6.568;2023-03-11T12:55:31;5.20;60.30
51801;DHT22;37855;53.204;6.568;2023-03-11T12:58:04;5.20;61.00
51801;DHT22;37855;53.204;6.568;2023-03-11T13:00:58;5.30;61.30
51801;DHT22;37855;53.204;6.568;2023-03-11T13:03:53;5.40;60.90
51801;DHT22;37855;53.204;6.568;2023-03-11T13:06:42;5.50;60.50
51801;DHT22;37855;53.204;6.568;2023-03-11T13:09:14;5.50;60.00
51801;DHT22;37855;53.204;6.568;2023-03-11T13:11:45;5.40;60.40
51801;DHT22;37855;53.204;6.568;2023-03-11T13:14:30;5.50;60.70
51801;DHT22;37855;53.204;6.568;2023-03-11T13:17:25;5.50;61.10
51801;DHT22;37855;53.204;6.568;2023-03-11T13:19:56;5.60;61.00
51801;DHT22;37855;53.204;6.568;2023-03-11T13:25:34;5.70;60.80
51801;DHT22;37855;53.204;6.568;2023-03-11T13:29:28;5.70;60.70
51801;DHT22;37855;53.204;6.568;2023-03-11T13:39:44;5.90;60.10
51801;DHT22;37855;53.204;6.568;2023-03-11T13:42:34;6.00;60.20
51801;DHT22;37855;53.204;6.568;2023-03-11T13:45:01;6.10;60.40
51801;DHT22;37855;53.204;6.568;2023-03-11T13:47:30;6.20;60.30
51801;DHT22;37855;53.204;6.568;2023-03-11T13:50:16;6.20;60.00
51801;DHT22;37855;53.204;6.568;2023-03-11T13:52:49;6.30;60.30
51801;DHT22;37855;53.204;6.568;2023-03-11T13:57:55;6.20;59.60
51801;DHT22;37855;53.204;6.568;2023-03-11T14:00:29;6.20;59.10
51801;DHT22;37855;53.204;6.568;2023-03-11T14:02:57;6.10;59.70
51801;DHT22;37855;53.204;6.568;2023-03-11T14:05:25;6.10;59.70
51801;DHT22;37855;53.204;6.568;2023-03-11T14:07:52;6.10;59.60
51801;DHT22;37855;53.204;6.568;2023-03-11T14:10:34;6.00;60.00
51801;DHT22;37855;53.204;6.568;2023-03-11T14:13:18;5.90;60.30
51801;DHT22;37855;53.204;6.568;2023-03-11T14:15:51;5.90;60.60
51801;DHT22;37855;53.204;6.568;2023-03-11T14:18:45;5.80;60.60
51801;DHT22;37855;53.204;6.568;2023-03-11T14:21:20;5.80;60.40
51801;DHT22;37855;53.204;6.568;2023-03-11T14:23:52;5.80;60.30
51801;DHT22;37855;53.204;6.568;2023-03-11T14:29:14;5.70;60.70
51801;DHT22;37855;53.204;6.568;2023-03-11T14:31:42;5.70;60.40
51801;DHT22;37855;53.204;6.568;2023-03-11T14:34:15;5.80;60.50
51801;DHT22;37855;53.204;6.568;2023-03-11T14:36:51;5.80;60.00
51801;DHT22;37855;53.204;6.568;2023-03-11T14:39:26;5.80;60.30
51801;DHT22;37855;53.204;6.568;2023-03-11T14:42:41;5.90;60.10
51801;DHT22;37855;53.204;6.568;2023-03-11T14:44:49;6.00;60.00
51801;DHT22;37855;53.204;6.568;2023-03-11T14:49:56;6.00;58.70
51801;DHT22;37855;53.204;6.568;2023-03-11T14:52:38;5.90;58.90
51801;DHT22;37855;53.204;6.568;2023-03-11T14:55:14;5.80;59.20
51801;DHT22;37855;53.204;6.568;2023-03-11T15:01:10;5.70;59.00
51801;DHT22;37855;53.204;6.568;2023-03-11T15:04:01;5.70;59.10
51801;DHT22;37855;53.204;6.568;2023-03-11T15:06:30;5.60;58.70
51801;DHT22;37855;53.204;6.568;2023-03-11T15:09:25;5.50;59.50
51801;DHT22;37855;53.204;6.568;2023-03-11T15:12:04;5.40;60.00
51801;DHT22;37855;53.204;6.568;2023-03-11T15:14:35;5.30;60.60
51801;DHT22;37855;53.204;6.568;2023-03-11T15:17:28;5.20;61.70
51801;DHT22;37855;53.204;6.568;2023-03-11T15:19:59;5.10;63.20
51801;DHT22;37855;53.204;6.568;2023-03-11T15:22:34;4.80;64.10
51801;DHT22;37855;53.204;6.568;2023-03-11T15:25:01;4.60;64.80
51801;DHT22;37855;53.204;6.568;2023-03-11T15:27:34;4.50;65.40
51801;DHT22;37855;53.204;6.568;2023-03-11T15:30:03;4.30;65.40
51801;DHT22;37855;53.204;6.568;2023-03-11T15:37:35;4.20;64.10
51801;DHT22;37855;53.204;6.568;2023-03-11T15:40:25;4.20;64.40
51801;DHT22;37855;53.204;6.568;2023-03-11T15:45:41;4.20;64.00
51801;DHT22;37855;53.204;6.568;2023-03-11T15:48:09;4.20;64.20
51801;DHT22;37855;53.204;6.568;2023-03-11T15:50:35;4.20;64.30
51801;DHT22;37855;53.204;6.568;2023-03-11T15:53:02;4.20;64.30
51801;DHT22;37855;53.204;6.568;2023-03-11T15:55:32;4.20;64.60
51801;DHT22;37855;53.204;6.568;2023-03-11T15:58:04;4.20;64.90
51801;DHT22;37855;53.204;6.568;2023-03-11T16:00:35;4.20;65.20
51801;DHT22;37855;53.204;6.568;2023-03-11T16:03:03;4.20;65.60
51801;DHT22;37855;53.204;6.568;2023-03-11T16:05:29;4.20;66.10
51801;DHT22;37855;53.204;6.568;2023-03-11T16:07:54;4.10;66.30
51801;DHT22;37855;53.204;6.568;2023-03-11T16:10:22;4.20;66.50
51801;DHT22;37855;53.204;6.568;2023-03-11T16:12:50;4.20;67.60
51801;DHT22;37855;53.204;6.568;2023-03-11T16:17:50;3.80;69.40
51801;DHT22;37855;53.204;6.568;2023-03-11T16:20:20;3.50;70.80
51801;DHT22;37855;53.204;6.568;2023-03-11T16:22:47;3.30;70.80
51801;DHT22;37855;53.204;6.568;2023-03-11T16:25:30;3.30;71.30
51801;DHT22;37855;53.204;6.568;2023-03-11T16:27:56;3.20;71.50
51801;DHT22;37855;53.204;6.568;2023-03-11T16:30:24;3.10;71.90
51801;DHT22;37855;53.204;6.568;2023-03-11T16:32:50;3.20;72.00
51801;DHT22;37855;53.204;6.568;2023-03-11T16:35:16;3.20;72.00
51801;DHT22;37855;53.204;6.568;2023-03-11T16:37:42;3.20;72.20
51801;DHT22;37855;53.204;6.568;2023-03-11T16:40:27;3.20;72.10
51801;DHT22;37855;53.204;6.568;2023-03-11T16:42:56;3.30;72.10
51801;DHT22;37855;53.204;6.568;2023-03-11T16:45:23;3.30;72.20
51801;DHT22;37855;53.204;6.568;2023-03-11T16:47:48;3.30;72.40
51801;DHT22;37855;53.204;6.568;2023-03-11T16:50:14;3.40;72.30
51801;DHT22;37855;53.204;6.568;2023-03-11T16:52:41;3.40;72.20
51801;DHT22;37855;53.204;6.568;2023-03-11T16:55:07;3.40;72.50
51801;DHT22;37855;53.204;6.568;2023-03-11T16:57:33;3.40;72.50
51801;DHT22;37855;53.204;6.568;2023-03-11T16:59:59;3.40;72.60
51801;DHT22;37855;53.204;6.568;2023-03-11T17:02:25;3.40;72.70
51801;DHT22;37855;53.204;6.568;2023-03-11T17:04:51;3.40;72.80
51801;DHT22;37855;53.204;6.568;2023-03-11T17:07:16;3.40;73.00
51801;DHT22;37855;53.204;6.568;2023-03-11T17:09:44;3.50;72.80
51801;DHT22;37855;53.204;6.568;2023-03-11T17:12:09;3.50;72.70
51801;DHT22;37855;53.204;6.568;2023-03-11T17:14:37;3.40;72.50
51801;DHT22;37855;53.204;6.568;2023-03-11T17:17:05;3.50;71.90
51801;DHT22;37855;53.204;6.568;2023-03-11T17:19:33;3.40;71.60
51801;DHT22;37855;53.204;6.568;2023-03-11T17:22:02;3.50;71.20
51801;DHT22;37855;53.204;6.568;2023-03-11T17:24:34;3.40;71.10
51801;DHT22;37855;53.204;6.568;2023-03-11T17:27:02;3.30;71.10
51801;DHT22;37855;53.204;6.568;2023-03-11T17:29:28;3.30;71.10
51801;DHT22;37855;53.204;6.568;2023-03-11T17:32:01;3.30;71.20
51801;DHT22;37855;53.204;6.568;2023-03-11T17:34:27;3.20;71.20